Iron Lady — WTK5059 — position and weather

sailwx.info

Track history (hours):
 
Tides and Currents Weather Stations Pressure Air Temp Water Temp Dewpoint Dewpoint Depression Visibility Wind Speed Wind Dir Waves Ship Positions

Iron Lady

Owner: IRON LADY INC, SOUTH BEND, WA. More information available from US FCC via Universal Licensing System and Coast Guard Vessel Documentation Center.

Last reported at 2014-Oct-31 07:11 UTC. Time now 2014-Oct-31 20:06 UTC.
Position N 46°47' W 124°54'.

Type: Fishing. MMSI: 367037240.

Date/timePositionNaut miles runAvg speedWind from/ knotsBaromVisibWave heightAir tempDewpointWater temp
2014-Oct-31 07:11N 46°47' W 124°54'4 2.2
2014-Oct-31 05:26N 46°43' W 124°52'2 2.3
2014-Oct-31 04:33N 46°42' W 124°51'2 2.3
2014-Oct-31 03:33N 46°40' W 124°50'3 2.3
2014-Oct-31 02:22N 46°37' W 124°48'1 0.7
2014-Oct-31 00:28N 46°37' W 124°49'4 1.9
2014-Oct-30 22:33N 46°41' W 124°51'2 2.2
2014-Oct-30 21:31N 46°43' W 124°52'3 0.5
2014-Oct-30 15:24N 46°42' W 124°48'3 3.4
2014-Oct-30 14:32N 46°39' W 124°46'1 1.3
2014-Oct-30 13:31N 46°38' W 124°45'3 1.6
2014-Oct-30 11:29N 46°39' W 124°49'2 2.0
2014-Oct-30 10:32N 46°41' W 124°50'2 2.0
2014-Oct-30 09:33N 46°43' W 124°51'2 2.0
2014-Oct-30 08:33N 46°45' W 124°53'2 1.9
2014-Oct-30 07:33N 46°46' W 124°53'2 1.9
2014-Oct-30 06:33N 46°48' W 124°55'3 2.1
2014-Oct-30 05:12N 46°51' W 124°57'7 8.4
2014-Oct-30 04:24N 46°45' W 124°53'2 2.3
2014-Oct-30 03:33N 46°43' W 124°50'2 2.4
2014-Oct-30 02:33N 46°41' W 124°49'5 2.6
2014-Oct-30 00:28N 46°38' W 124°43'7 7.9
2014-Oct-29 23:34N 46°33' W 124°36'8 8.0
2014-Oct-29 22:33N 46°27' W 124°28'9 8.8
2014-Oct-29 21:33N 46°20' W 124°19'9 9.0
2014-Oct-29 20:33N 46°14' W 124°10'8 7.7
2014-Oct-29 19:33N 46°14' W 123°58'5 4.5
2014-Oct-29 18:33N 46°10' W 123°55'0 0.0
2014-Oct-29 17:33N 46°10' W 123°55'0 0.0
2014-Oct-29 16:33N 46°10' W 123°55'0 0.0
2014-Oct-29 15:33N 46°10' W 123°55'0 0.0
2014-Oct-29 14:33N 46°10' W 123°55'0 0.0
2014-Oct-29 13:33N 46°10' W 123°55'0 0.0
2014-Oct-29 12:33N 46°10' W 123°55'0 0.0
2014-Oct-29 11:33N 46°10' W 123°55'0 0.0
2014-Oct-29 10:33N 46°10' W 123°55'0 0.0
2014-Oct-29 09:33N 46°10' W 123°55'0 0.0
2014-Oct-29 08:33N 46°10' W 123°55'0 0.0
2014-Oct-29 07:33N 46°10' W 123°55'0 0.0
2014-Oct-29 06:33N 46°10' W 123°55'0 0.0
2014-Oct-29 05:33N 46°10' W 123°55'0 0.0
2014-Oct-29 04:33N 46°10' W 123°55'0 0.0
2014-Oct-29 03:33N 46°10' W 123°55'0 0.0
2014-Oct-29 02:33N 46°10' W 123°55'0 0.0
2014-Oct-29 01:33N 46°10' W 123°55'0 0.0
2014-Oct-29 00:34N 46°10' W 123°55'0 0.0
2014-Oct-28 23:33N 46°10' W 123°55'0 0.0
2014-Oct-28 22:33N 46°10' W 123°55'0 0.0
2014-Oct-28 21:33N 46°10' W 123°55'0 0.0
2014-Oct-28 20:33N 46°10' W 123°55'0 0.0
2014-Oct-28 19:33N 46°10' W 123°55'0 0.0
2014-Oct-28 18:33N 46°10' W 123°55'0 0.0
2014-Oct-28 17:34N 46°10' W 123°55'3 2.6
2014-Oct-28 16:33N 46°11' W 123°52'3 2.6
2014-Oct-28 15:33N 46°10' W 123°55'0 0.0
2014-Oct-28 14:33N 46°10' W 123°55'0 0.0
2014-Oct-28 13:33N 46°10' W 123°55'0 0.0
2014-Oct-28 12:33N 46°10' W 123°55'0 0.0
2014-Oct-28 11:34N 46°10' W 123°55'0 0.0
2014-Oct-28 10:33N 46°10' W 123°55'0 0.0
2014-Oct-28 09:33N 46°10' W 123°55'0 0.0
2014-Oct-28 08:33N 46°10' W 123°55'0 0.0
2014-Oct-28 07:33N 46°10' W 123°55'0 0.0
2014-Oct-28 06:33N 46°10' W 123°55'0 0.0
2014-Oct-28 05:33N 46°10' W 123°55'0 0.0
2014-Oct-28 04:33N 46°10' W 123°55'0 0.0
2014-Oct-28 03:34N 46°10' W 123°55'0 0.0
2014-Oct-28 02:33N 46°10' W 123°55'0 0.0
2014-Oct-28 01:33N 46°10' W 123°55'0 0.0
2014-Oct-28 00:33N 46°10' W 123°55'0 0.0
2014-Oct-27 23:33N 46°10' W 123°55'0 0.0
2014-Oct-27 22:33N 46°10' W 123°55'0 0.0
2014-Oct-27 21:33N 46°10' W 123°55'0 0.0
2014-Oct-27 20:33N 46°10' W 123°55'0 0.0
2014-Oct-27 19:33N 46°10' W 123°55'0 0.0
2014-Oct-27 18:33N 46°10' W 123°55'0 0.0
2014-Oct-27 17:33N 46°10' W 123°55'0 0.0
2014-Oct-27 16:33N 46°10' W 123°55'0 0.0
2014-Oct-27 15:34N 46°10' W 123°55'0 0.0
2014-Oct-27 14:33N 46°10' W 123°55'0 0.0
2014-Oct-27 13:33N 46°10' W 123°55'0 0.0
2014-Oct-27 13:30N 46°10' W 123°55'0 0.0
2014-Oct-27 12:33N 46°10' W 123°55'0 0.0
2014-Oct-27 12:30N 46°10' W 123°55'0 0.0
2014-Oct-27 11:34N 46°10' W 123°55'0 0.0
2014-Oct-27 10:33N 46°10' W 123°55'0 0.0
2014-Oct-27 10:04N 46°10' W 123°55'0 0.0
2014-Oct-27 09:34N 46°10' W 123°55'0 0.0
2014-Oct-27 09:14N 46°10' W 123°55'0 0.0
2014-Oct-27 08:33N 46°10' W 123°55'0 0.0
2014-Oct-27 08:24N 46°10' W 123°55'0 0.0
2014-Oct-27 07:33N 46°10' W 123°55'0 0.0
2014-Oct-27 07:14N 46°10' W 123°55'0 0.0
2014-Oct-27 06:33N 46°10' W 123°55'0 0.0
2014-Oct-27 06:24N 46°10' W 123°55'0 0.0
2014-Oct-27 05:33N 46°10' W 123°55'0 0.0
2014-Oct-27 04:33N 46°10' W 123°55'0 0.0
2014-Oct-27 03:34N 46°10' W 123°55'0 0.0
2014-Oct-27 02:33N 46°10' W 123°55'0 0.0
2014-Oct-27 01:42N 46°10' W 123°55'0 0.0
2014-Oct-27 01:33N 46°10' W 123°55'0 0.0
2014-Oct-27 00:33N 46°10' W 123°55'0 0.0
2014-Oct-27 00:07N 46°10' W 123°55'0 0.0
2014-Oct-26 23:34N 46°10' W 123°55'0 0.0
2014-Oct-26 22:38N 46°10' W 123°55'0 0.0
2014-Oct-26 22:34N 46°10' W 123°55'0 0.1
2014-Oct-26 22:27N 46°10' W 123°55'0 0.0
2014-Oct-26 21:34N 46°10' W 123°55'0 0.0
2014-Oct-26 21:27N 46°10' W 123°55'0 0.0
2014-Oct-26 20:33N 46°10' W 123°55'0 0.0
2014-Oct-26 19:57N 46°10' W 123°55'0 0.0
2014-Oct-26 19:33N 46°10' W 123°55'0 0.0
2014-Oct-26 18:33N 46°10' W 123°55'0 0.0
2014-Oct-26 17:33N 46°10' W 123°55'0 0.0
2014-Oct-26 16:33N 46°10' W 123°55'0 0.0
2014-Oct-26 16:31N 46°10' W 123°55'0 0.0
2014-Oct-26 15:34N 46°10' W 123°55'0 0.0
2014-Oct-26 14:33N 46°10' W 123°55'0 0.0
2014-Oct-26 13:33N 46°10' W 123°55'0 0.0
2014-Oct-26 12:33N 46°10' W 123°55'0 0.0
2014-Oct-26 11:45N 46°10' W 123°55'0 0.0
2014-Oct-26 11:33N 46°10' W 123°55'0 0.0
2014-Oct-26 10:33N 46°10' W 123°55'0 0.0
2014-Oct-26 10:25N 46°10' W 123°55'0 0.0
2014-Oct-26 09:33N 46°10' W 123°55'0 0.0
2014-Oct-26 09:30N 46°10' W 123°55'0 0.0
2014-Oct-26 08:33N 46°10' W 123°55'0 0.0
2014-Oct-26 07:50N 46°10' W 123°55'0 0.0
2014-Oct-26 07:33N 46°10' W 123°55'0 0.0
2014-Oct-26 07:20N 46°10' W 123°55'0 0.0
2014-Oct-26 06:33N 46°10' W 123°55'0 0.0
2014-Oct-26 06:10N 46°10' W 123°55'0 0.0
2014-Oct-26 05:45N 46°10' W 123°55'0 0.0
2014-Oct-26 05:33N 46°10' W 123°55'0 0.0
2014-Oct-26 04:33N 46°10' W 123°55'0 0.0
2014-Oct-26 03:39N 46°10' W 123°55'0 0.0
2014-Oct-26 03:33N 46°10' W 123°55'0 0.0
2014-Oct-26 02:59N 46°10' W 123°55'0 0.0
2014-Oct-26 02:34N 46°10' W 123°55'0 0.0
2014-Oct-26 02:29N 46°10' W 123°55'0 0.0
2014-Oct-26 01:33N 46°10' W 123°55'0 0.0
2014-Oct-26 01:07N 46°10' W 123°55'0 0.0
2014-Oct-26 00:33N 46°10' W 123°55'0 0.0
2014-Oct-25 23:33N 46°10' W 123°55'0 0.0
2014-Oct-25 22:33N 46°10' W 123°55'0 0.0
2014-Oct-25 21:44N 46°10' W 123°55'0 0.0
2014-Oct-25 21:33N 46°10' W 123°55'0 0.0
2014-Oct-25 21:14N 46°10' W 123°55'0 0.0
2014-Oct-25 20:33N 46°10' W 123°55'0 0.0
2014-Oct-25 20:09N 46°10' W 123°55'0 0.0
2014-Oct-25 19:33N 46°10' W 123°55'0 0.0
2014-Oct-25 18:33N 46°10' W 123°55'0 0.0
2014-Oct-25 18:13N 46°10' W 123°55'0 0.0
2014-Oct-25 17:33N 46°10' W 123°55'0 0.0
2014-Oct-25 16:48N 46°10' W 123°55'0 0.0
2014-Oct-25 16:33N 46°10' W 123°55'0 0.0
2014-Oct-25 15:33N 46°10' W 123°55'0 0.0
2014-Oct-25 15:13N 46°10' W 123°55'0 0.0
2014-Oct-25 14:34N 46°10' W 123°55'0 0.0
2014-Oct-25 13:53N 46°10' W 123°55'0 0.0
2014-Oct-25 13:33N 46°10' W 123°55'0 0.0
2014-Oct-25 12:33N 46°10' W 123°55'0 0.0
2014-Oct-25 12:18N 46°10' W 123°55'0 0.0
2014-Oct-25 11:33N 46°10' W 123°55'0 0.0
2014-Oct-25 10:48N 46°10' W 123°55'0 0.0
2014-Oct-25 10:33N 46°10' W 123°55'0 0.0
2014-Oct-25 10:23N 46°10' W 123°55'0 0.0
2014-Oct-25 09:33N 46°10' W 123°55'0 0.0
2014-Oct-25 09:32N 46°10' W 123°55'0 0.0
2014-Oct-25 08:33N 46°10' W 123°55'0 0.0
2014-Oct-25 07:47N 46°10' W 123°55'0 0.0
2014-Oct-25 07:34N 46°10' W 123°55'0 0.0
2014-Oct-25 06:33N 46°10' W 123°55'0 0.0
2014-Oct-25 05:52N 46°10' W 123°55'0 0.0
2014-Oct-25 05:33N 46°10' W 123°55'0 0.0
2014-Oct-25 04:33N 46°10' W 123°55'0 0.0
2014-Oct-25 04:27N 46°10' W 123°55'0 0.0
2014-Oct-25 03:34N 46°10' W 123°55'0 0.0
2014-Oct-25 02:57N 46°10' W 123°55'0 0.0
2014-Oct-25 02:33N 46°10' W 123°55'0 0.0
2014-Oct-25 02:22N 46°10' W 123°55'0 0.0
2014-Oct-25 01:33N 46°10' W 123°55'0 0.0
2014-Oct-25 00:57N 46°10' W 123°55'0 0.0
2014-Oct-25 00:33N 46°10' W 123°55'0 0.0
2014-Oct-25 00:21N 46°10' W 123°55'0 0.0
2014-Oct-24 23:34N 46°10' W 123°55'0 0.0
2014-Oct-24 22:33N 46°10' W 123°55'0 0.0
2014-Oct-24 22:21N 46°10' W 123°55'0 0.0
2014-Oct-24 21:33N 46°10' W 123°55'0 0.0
2014-Oct-24 21:26N 46°10' W 123°55'0 0.0
2014-Oct-24 20:33N 46°10' W 123°55'0 0.0
2014-Oct-24 20:16N 46°10' W 123°55'0 0.0
2014-Oct-24 19:33N 46°10' W 123°55'0 0.0
2014-Oct-24 18:32N 46°10' W 123°55'0 0.0
2014-Oct-24 17:34N 46°10' W 123°55'0 0.0
2014-Oct-24 17:03N 46°10' W 123°55'0 0.0
2014-Oct-24 16:33N 46°10' W 123°55'0 0.0
2014-Oct-24 15:33N 46°10' W 123°55'0 0.0
2014-Oct-24 14:33N 46°10' W 123°55'0 0.0
2014-Oct-24 13:33N 46°10' W 123°55'0 0.0
2014-Oct-24 12:33N 46°10' W 123°55'0 0.0
2014-Oct-24 11:34N 46°10' W 123°55'0 0.0
2014-Oct-24 10:33N 46°10' W 123°55'0 0.0
2014-Oct-24 10:02N 46°10' W 123°55'0 0.0
2014-Oct-24 09:33N 46°10' W 123°55'0 0.0
2014-Oct-24 08:33N 46°10' W 123°55'0 0.0
2014-Oct-24 07:33N 46°10' W 123°55'0 0.0
2014-Oct-24 06:33N 46°10' W 123°55'0 0.0
2014-Oct-24 05:33N 46°10' W 123°55'0 0.0
2014-Oct-24 04:33N 46°10' W 123°55'0 0.0
2014-Oct-24 03:33N 46°10' W 123°55'0 0.0
2014-Oct-24 03:27N 46°10' W 123°55'0 0.0
2014-Oct-24 02:33N 46°10' W 123°55'0 0.0
2014-Oct-24 02:32N 46°10' W 123°55'0 0.0
2014-Oct-24 01:33N 46°10' W 123°55'0 0.0
2014-Oct-24 01:31N 46°10' W 123°55'0 0.0
2014-Oct-24 00:33N 46°10' W 123°55'0 0.1
2014-Oct-24 00:27N 46°10' W 123°55'0 0.0
2014-Oct-23 23:33N 46°10' W 123°55'0 0.0
2014-Oct-23 23:21N 46°10' W 123°55'0 0.0
2014-Oct-23 22:33N 46°10' W 123°55'0 0.0
2014-Oct-23 22:16N 46°10' W 123°55'0 0.0
2014-Oct-23 21:33N 46°10' W 123°55'0 0.0
2014-Oct-23 21:26N 46°10' W 123°55'0 0.0
2014-Oct-23 20:33N 46°10' W 123°55'0 0.0
2014-Oct-23 19:33N 46°10' W 123°55'0 0.0
2014-Oct-23 18:33N 46°10' W 123°55'0 0.0
2014-Oct-23 17:33N 46°10' W 123°55'0 0.0
2014-Oct-23 16:33N 46°10' W 123°55'0 0.0
2014-Oct-23 15:33N 46°10' W 123°55'0 0.0
2014-Oct-23 14:33N 46°10' W 123°55'0 0.0
2014-Oct-23 13:33N 46°10' W 123°55'0 0.0
2014-Oct-23 12:33N 46°10' W 123°55'0 0.0
2014-Oct-23 11:33N 46°10' W 123°55'0 0.0
2014-Oct-23 10:33N 46°10' W 123°55'0 0.0
2014-Oct-23 09:33N 46°10' W 123°55'0 0.0
2014-Oct-23 08:33N 46°10' W 123°55'0 0.0
2014-Oct-23 07:33N 46°10' W 123°55'0 0.0
2014-Oct-23 06:34N 46°10' W 123°55'0 0.0
2014-Oct-23 06:14N 46°10' W 123°55'0 0.0
2014-Oct-23 05:33N 46°10' W 123°55'0 0.0
2014-Oct-23 04:33N 46°10' W 123°55'0 0.0
2014-Oct-23 03:33N 46°10' W 123°55'0 0.0
2014-Oct-23 02:33N 46°10' W 123°55'0 0.0
2014-Oct-23 01:33N 46°10' W 123°55'0 0.0
2014-Oct-23 00:33N 46°10' W 123°55'0 0.0
2014-Oct-22 23:33N 46°10' W 123°55'0 0.0
2014-Oct-22 22:33N 46°10' W 123°55'0 0.0
2014-Oct-22 21:33N 46°10' W 123°55'0 0.0
2014-Oct-22 20:34N 46°10' W 123°55'0 0.0
2014-Oct-22 19:33N 46°10' W 123°55'0 0.0
2014-Oct-22 18:33N 46°10' W 123°55'0 0.0
2014-Oct-22 17:33N 46°10' W 123°55'0 0.0
2014-Oct-22 16:33N 46°10' W 123°55'0 0.0
2014-Oct-22 15:33N 46°10' W 123°55'0 0.0
2014-Oct-22 14:33N 46°10' W 123°55'0 0.0
2014-Oct-22 13:33N 46°10' W 123°55'0 0.0
2014-Oct-22 12:34N 46°10' W 123°55'0 0.0
2014-Oct-22 11:33N 46°10' W 123°55'0 0.0
2014-Oct-22 10:33N 46°10' W 123°55'0 0.0
2014-Oct-22 09:33N 46°10' W 123°55'0 0.0
2014-Oct-22 08:33N 46°10' W 123°55'0 0.0
2014-Oct-22 07:33N 46°10' W 123°55'0 0.0
2014-Oct-22 06:33N 46°10' W 123°55'0 0.0
2014-Oct-22 05:33N 46°10' W 123°55'0 0.0
2014-Oct-22 04:33N 46°10' W 123°55'0 0.0
2014-Oct-22 03:51N 46°10' W 123°55'0 0.0
2014-Oct-22 03:33N 46°10' W 123°55'0 0.0
2014-Oct-22 03:31N 46°10' W 123°55'0 0.0
2014-Oct-22 02:33N 46°10' W 123°55'0 0.0
2014-Oct-22 01:33N 46°10' W 123°55'0 0.0
2014-Oct-22 00:34N 46°10' W 123°55'0 0.0
2014-Oct-21 23:33N 46°10' W 123°55'0 0.0
2014-Oct-21 22:33N 46°10' W 123°55'0 0.0
2014-Oct-21 21:36N 46°10' W 123°55'0 0.0
2014-Oct-21 21:33N 46°10' W 123°55'0 0.0
2014-Oct-21 21:16N 46°10' W 123°55'0 0.0
2014-Oct-21 20:33N 46°10' W 123°55'0 0.0
2014-Oct-21 19:33N 46°10' W 123°55'0 0.0
2014-Oct-21 18:33N 46°10' W 123°55'0 0.0
2014-Oct-21 17:33N 46°10' W 123°55'0 0.0
2014-Oct-21 16:33N 46°10' W 123°55'0 0.0
2014-Oct-21 15:33N 46°10' W 123°55'0 0.0
2014-Oct-21 14:33N 46°10' W 123°55'0 0.0
2014-Oct-21 13:33N 46°10' W 123°55'0 0.0
2014-Oct-21 12:55N 46°10' W 123°55'0 0.0
2014-Oct-21 12:33N 46°10' W 123°55'0 0.0
2014-Oct-21 11:33N 46°10' W 123°55'0 0.0
2014-Oct-21 10:34N 46°10' W 123°55'0 0.0
2014-Oct-21 10:25N 46°10' W 123°55'0 0.0
2014-Oct-21 09:33N 46°10' W 123°55'0 0.0
2014-Oct-21 09:20N 46°10' W 123°55'0 0.0
2014-Oct-21 08:33N 46°10' W 123°55'0 0.0
2014-Oct-21 08:10N 46°10' W 123°55'0 0.0
2014-Oct-21 07:33N 46°10' W 123°55'  
Track history (hours):
 
Tides and Currents Weather Stations Pressure Air Temp Water Temp Dewpoint Dewpoint Depression Visibility Wind Speed Wind Dir Waves Ship Positions

Iron Lady

Owner: IRON LADY INC, SOUTH BEND, WA. More information available from US FCC via Universal Licensing System and Coast Guard Vessel Documentation Center.

Last reported at 2014-Oct-31 07:11 UTC. Time now 2014-Oct-31 20:06 UTC.
Position N 46°47' W 124°54'.

Type: Fishing. MMSI: 367037240.

Date/timePositionNaut miles runAvg speedWind from/ knotsBaromVisibWave heightAir tempDewpointWater temp
2014-Oct-31 07:11N 46°47' W 124°54'4 2.2
2014-Oct-31 05:26N 46°43' W 124°52'2 2.3
2014-Oct-31 04:33N 46°42' W 124°51'2 2.3
2014-Oct-31 03:33N 46°40' W 124°50'3 2.3
2014-Oct-31 02:22N 46°37' W 124°48'1 0.7
2014-Oct-31 00:28N 46°37' W 124°49'4 1.9
2014-Oct-30 22:33N 46°41' W 124°51'2 2.2
2014-Oct-30 21:31N 46°43' W 124°52'3 0.5
2014-Oct-30 15:24N 46°42' W 124°48'3 3.4
2014-Oct-30 14:32N 46°39' W 124°46'1 1.3
2014-Oct-30 13:31N 46°38' W 124°45'3 1.6
2014-Oct-30 11:29N 46°39' W 124°49'2 2.0
2014-Oct-30 10:32N 46°41' W 124°50'2 2.0
2014-Oct-30 09:33N 46°43' W 124°51'2 2.0
2014-Oct-30 08:33N 46°45' W 124°53'2 1.9
2014-Oct-30 07:33N 46°46' W 124°53'2 1.9
2014-Oct-30 06:33N 46°48' W 124°55'3 2.1
2014-Oct-30 05:12N 46°51' W 124°57'7 8.4
2014-Oct-30 04:24N 46°45' W 124°53'2 2.3
2014-Oct-30 03:33N 46°43' W 124°50'2 2.4
2014-Oct-30 02:33N 46°41' W 124°49'5 2.6
2014-Oct-30 00:28N 46°38' W 124°43'7 7.9
2014-Oct-29 23:34N 46°33' W 124°36'8 8.0
2014-Oct-29 22:33N 46°27' W 124°28'9 8.8
2014-Oct-29 21:33N 46°20' W 124°19'9 9.0
2014-Oct-29 20:33N 46°14' W 124°10'8 7.7
2014-Oct-29 19:33N 46°14' W 123°58'5 4.5
2014-Oct-29 18:33N 46°10' W 123°55'0 0.0
2014-Oct-29 17:33N 46°10' W 123°55'0 0.0
2014-Oct-29 16:33N 46°10' W 123°55'0 0.0
2014-Oct-29 15:33N 46°10' W 123°55'0 0.0
2014-Oct-29 14:33N 46°10' W 123°55'0 0.0
2014-Oct-29 13:33N 46°10' W 123°55'0 0.0
2014-Oct-29 12:33N 46°10' W 123°55'0 0.0
2014-Oct-29 11:33N 46°10' W 123°55'0 0.0
2014-Oct-29 10:33N 46°10' W 123°55'0 0.0
2014-Oct-29 09:33N 46°10' W 123°55'0 0.0
2014-Oct-29 08:33N 46°10' W 123°55'0 0.0
2014-Oct-29 07:33N 46°10' W 123°55'0 0.0
2014-Oct-29 06:33N 46°10' W 123°55'0 0.0
2014-Oct-29 05:33N 46°10' W 123°55'0 0.0
2014-Oct-29 04:33N 46°10' W 123°55'0 0.0
2014-Oct-29 03:33N 46°10' W 123°55'0 0.0
2014-Oct-29 02:33N 46°10' W 123°55'0 0.0
2014-Oct-29 01:33N 46°10' W 123°55'0 0.0
2014-Oct-29 00:34N 46°10' W 123°55'0 0.0
2014-Oct-28 23:33N 46°10' W 123°55'0 0.0
2014-Oct-28 22:33N 46°10' W 123°55'0 0.0
2014-Oct-28 21:33N 46°10' W 123°55'0 0.0
2014-Oct-28 20:33N 46°10' W 123°55'0 0.0
2014-Oct-28 19:33N 46°10' W 123°55'0 0.0
2014-Oct-28 18:33N 46°10' W 123°55'0 0.0
2014-Oct-28 17:34N 46°10' W 123°55'3 2.6
2014-Oct-28 16:33N 46°11' W 123°52'3 2.6
2014-Oct-28 15:33N 46°10' W 123°55'0 0.0
2014-Oct-28 14:33N 46°10' W 123°55'0 0.0
2014-Oct-28 13:33N 46°10' W 123°55'0 0.0
2014-Oct-28 12:33N 46°10' W 123°55'0 0.0
2014-Oct-28 11:34N 46°10' W 123°55'0 0.0
2014-Oct-28 10:33N 46°10' W 123°55'0 0.0
2014-Oct-28 09:33N 46°10' W 123°55'0 0.0
2014-Oct-28 08:33N 46°10' W 123°55'0 0.0
2014-Oct-28 07:33N 46°10' W 123°55'0 0.0
2014-Oct-28 06:33N 46°10' W 123°55'0 0.0
2014-Oct-28 05:33N 46°10' W 123°55'0 0.0
2014-Oct-28 04:33N 46°10' W 123°55'0 0.0
2014-Oct-28 03:34N 46°10' W 123°55'0 0.0
2014-Oct-28 02:33N 46°10' W 123°55'0 0.0
2014-Oct-28 01:33N 46°10' W 123°55'0 0.0
2014-Oct-28 00:33N 46°10' W 123°55'0 0.0
2014-Oct-27 23:33N 46°10' W 123°55'0 0.0
2014-Oct-27 22:33N 46°10' W 123°55'0 0.0
2014-Oct-27 21:33N 46°10' W 123°55'0 0.0
2014-Oct-27 20:33N 46°10' W 123°55'0 0.0
2014-Oct-27 19:33N 46°10' W 123°55'0 0.0
2014-Oct-27 18:33N 46°10' W 123°55'0 0.0
2014-Oct-27 17:33N 46°10' W 123°55'0 0.0
2014-Oct-27 16:33N 46°10' W 123°55'0 0.0
2014-Oct-27 15:34N 46°10' W 123°55'0 0.0
2014-Oct-27 14:33N 46°10' W 123°55'0 0.0
2014-Oct-27 13:33N 46°10' W 123°55'0 0.0
2014-Oct-27 13:30N 46°10' W 123°55'0 0.0
2014-Oct-27 12:33N 46°10' W 123°55'0 0.0
2014-Oct-27 12:30N 46°10' W 123°55'0 0.0
2014-Oct-27 11:34N 46°10' W 123°55'0 0.0
2014-Oct-27 10:33N 46°10' W 123°55'0 0.0
2014-Oct-27 10:04N 46°10' W 123°55'0 0.0
2014-Oct-27 09:34N 46°10' W 123°55'0 0.0
2014-Oct-27 09:14N 46°10' W 123°55'0 0.0
2014-Oct-27 08:33N 46°10' W 123°55'0 0.0
2014-Oct-27 08:24N 46°10' W 123°55'0 0.0
2014-Oct-27 07:33N 46°10' W 123°55'0 0.0
2014-Oct-27 07:14N 46°10' W 123°55'0 0.0
2014-Oct-27 06:33N 46°10' W 123°55'0 0.0
2014-Oct-27 06:24N 46°10' W 123°55'0 0.0
2014-Oct-27 05:33N 46°10' W 123°55'0 0.0
2014-Oct-27 04:33N 46°10' W 123°55'0 0.0
2014-Oct-27 03:34N 46°10' W 123°55'0 0.0
2014-Oct-27 02:33N 46°10' W 123°55'0 0.0
2014-Oct-27 01:42N 46°10' W 123°55'0 0.0
2014-Oct-27 01:33N 46°10' W 123°55'0 0.0
2014-Oct-27 00:33N 46°10' W 123°55'0 0.0
2014-Oct-27 00:07N 46°10' W 123°55'0 0.0
2014-Oct-26 23:34N 46°10' W 123°55'0 0.0
2014-Oct-26 22:38N 46°10' W 123°55'0 0.0
2014-Oct-26 22:34N 46°10' W 123°55'0 0.1
2014-Oct-26 22:27N 46°10' W 123°55'0 0.0
2014-Oct-26 21:34N 46°10' W 123°55'0 0.0
2014-Oct-26 21:27N 46°10' W 123°55'0 0.0
2014-Oct-26 20:33N 46°10' W 123°55'0 0.0
2014-Oct-26 19:57N 46°10' W 123°55'0 0.0
2014-Oct-26 19:33N 46°10' W 123°55'0 0.0
2014-Oct-26 18:33N 46°10' W 123°55'0 0.0
2014-Oct-26 17:33N 46°10' W 123°55'0 0.0
2014-Oct-26 16:33N 46°10' W 123°55'0 0.0
2014-Oct-26 16:31N 46°10' W 123°55'0 0.0
2014-Oct-26 15:34N 46°10' W 123°55'0 0.0
2014-Oct-26 14:33N 46°10' W 123°55'0 0.0
2014-Oct-26 13:33N 46°10' W 123°55'0 0.0
2014-Oct-26 12:33N 46°10' W 123°55'0 0.0
2014-Oct-26 11:45N 46°10' W 123°55'0 0.0
2014-Oct-26 11:33N 46°10' W 123°55'0 0.0
2014-Oct-26 10:33N 46°10' W 123°55'0 0.0
2014-Oct-26 10:25N 46°10' W 123°55'0 0.0
2014-Oct-26 09:33N 46°10' W 123°55'0 0.0
2014-Oct-26 09:30N 46°10' W 123°55'0 0.0
2014-Oct-26 08:33N 46°10' W 123°55'0 0.0
2014-Oct-26 07:50N 46°10' W 123°55'0 0.0
2014-Oct-26 07:33N 46°10' W 123°55'0 0.0
2014-Oct-26 07:20N 46°10' W 123°55'0 0.0
2014-Oct-26 06:33N 46°10' W 123°55'0 0.0
2014-Oct-26 06:10N 46°10' W 123°55'0 0.0
2014-Oct-26 05:45N 46°10' W 123°55'0 0.0
2014-Oct-26 05:33N 46°10' W 123°55'0 0.0
2014-Oct-26 04:33N 46°10' W 123°55'0 0.0
2014-Oct-26 03:39N 46°10' W 123°55'0 0.0
2014-Oct-26 03:33N 46°10' W 123°55'0 0.0
2014-Oct-26 02:59N 46°10' W 123°55'0 0.0
2014-Oct-26 02:34N 46°10' W 123°55'0 0.0
2014-Oct-26 02:29N 46°10' W 123°55'0 0.0
2014-Oct-26 01:33N 46°10' W 123°55'0 0.0
2014-Oct-26 01:07N 46°10' W 123°55'0 0.0
2014-Oct-26 00:33N 46°10' W 123°55'0 0.0
2014-Oct-25 23:33N 46°10' W 123°55'0 0.0
2014-Oct-25 22:33N 46°10' W 123°55'0 0.0
2014-Oct-25 21:44N 46°10' W 123°55'0 0.0
2014-Oct-25 21:33N 46°10' W 123°55'0 0.0
2014-Oct-25 21:14N 46°10' W 123°55'0 0.0
2014-Oct-25 20:33N 46°10' W 123°55'0 0.0
2014-Oct-25 20:09N 46°10' W 123°55'0 0.0
2014-Oct-25 19:33N 46°10' W 123°55'0 0.0
2014-Oct-25 18:33N 46°10' W 123°55'0 0.0
2014-Oct-25 18:13N 46°10' W 123°55'0 0.0
2014-Oct-25 17:33N 46°10' W 123°55'0 0.0
2014-Oct-25 16:48N 46°10' W 123°55'0 0.0
2014-Oct-25 16:33N 46°10' W 123°55'0 0.0
2014-Oct-25 15:33N 46°10' W 123°55'0 0.0
2014-Oct-25 15:13N 46°10' W 123°55'0 0.0
2014-Oct-25 14:34N 46°10' W 123°55'0 0.0
2014-Oct-25 13:53N 46°10' W 123°55'0 0.0
2014-Oct-25 13:33N 46°10' W 123°55'0 0.0
2014-Oct-25 12:33N 46°10' W 123°55'0 0.0
2014-Oct-25 12:18N 46°10' W 123°55'0 0.0
2014-Oct-25 11:33N 46°10' W 123°55'0 0.0
2014-Oct-25 10:48N 46°10' W 123°55'0 0.0
2014-Oct-25 10:33N 46°10' W 123°55'0 0.0
2014-Oct-25 10:23N 46°10' W 123°55'0 0.0
2014-Oct-25 09:33N 46°10' W 123°55'0 0.0
2014-Oct-25 09:32N 46°10' W 123°55'0 0.0
2014-Oct-25 08:33N 46°10' W 123°55'0 0.0
2014-Oct-25 07:47N 46°10' W 123°55'0 0.0
2014-Oct-25 07:34N 46°10' W 123°55'0 0.0
2014-Oct-25 06:33N 46°10' W 123°55'0 0.0
2014-Oct-25 05:52N 46°10' W 123°55'0 0.0
2014-Oct-25 05:33N 46°10' W 123°55'0 0.0
2014-Oct-25 04:33N 46°10' W 123°55'0 0.0
2014-Oct-25 04:27N 46°10' W 123°55'0 0.0
2014-Oct-25 03:34N 46°10' W 123°55'0 0.0
2014-Oct-25 02:57N 46°10' W 123°55'0 0.0
2014-Oct-25 02:33N 46°10' W 123°55'0 0.0
2014-Oct-25 02:22N 46°10' W 123°55'0 0.0
2014-Oct-25 01:33N 46°10' W 123°55'0 0.0
2014-Oct-25 00:57N 46°10' W 123°55'0 0.0
2014-Oct-25 00:33N 46°10' W 123°55'0 0.0
2014-Oct-25 00:21N 46°10' W 123°55'0 0.0
2014-Oct-24 23:34N 46°10' W 123°55'0 0.0
2014-Oct-24 22:33N 46°10' W 123°55'0 0.0
2014-Oct-24 22:21N 46°10' W 123°55'0 0.0
2014-Oct-24 21:33N 46°10' W 123°55'0 0.0
2014-Oct-24 21:26N 46°10' W 123°55'0 0.0
2014-Oct-24 20:33N 46°10' W 123°55'0 0.0
2014-Oct-24 20:16N 46°10' W 123°55'0 0.0
2014-Oct-24 19:33N 46°10' W 123°55'0 0.0
2014-Oct-24 18:32N 46°10' W 123°55'0 0.0
2014-Oct-24 17:34N 46°10' W 123°55'0 0.0
2014-Oct-24 17:03N 46°10' W 123°55'0 0.0
2014-Oct-24 16:33N 46°10' W 123°55'0 0.0
2014-Oct-24 15:33N 46°10' W 123°55'0 0.0
2014-Oct-24 14:33N 46°10' W 123°55'0 0.0
2014-Oct-24 13:33N 46°10' W 123°55'0 0.0
2014-Oct-24 12:33N 46°10' W 123°55'0 0.0
2014-Oct-24 11:34N 46°10' W 123°55'0 0.0
2014-Oct-24 10:33N 46°10' W 123°55'0 0.0
2014-Oct-24 10:02N 46°10' W 123°55'0 0.0
2014-Oct-24 09:33N 46°10' W 123°55'0 0.0
2014-Oct-24 08:33N 46°10' W 123°55'0 0.0
2014-Oct-24 07:33N 46°10' W 123°55'0 0.0
2014-Oct-24 06:33N 46°10' W 123°55'0 0.0
2014-Oct-24 05:33N 46°10' W 123°55'0 0.0
2014-Oct-24 04:33N 46°10' W 123°55'0 0.0
2014-Oct-24 03:33N 46°10' W 123°55'0 0.0
2014-Oct-24 03:27N 46°10' W 123°55'0 0.0
2014-Oct-24 02:33N 46°10' W 123°55'0 0.0
2014-Oct-24 02:32N 46°10' W 123°55'0 0.0
2014-Oct-24 01:33N 46°10' W 123°55'0 0.0
2014-Oct-24 01:31N 46°10' W 123°55'0 0.0
2014-Oct-24 00:33N 46°10' W 123°55'0 0.1
2014-Oct-24 00:27N 46°10' W 123°55'0 0.0
2014-Oct-23 23:33N 46°10' W 123°55'0 0.0
2014-Oct-23 23:21N 46°10' W 123°55'0 0.0
2014-Oct-23 22:33N 46°10' W 123°55'0 0.0
2014-Oct-23 22:16N 46°10' W 123°55'0 0.0
2014-Oct-23 21:33N 46°10' W 123°55'0 0.0
2014-Oct-23 21:26N 46°10' W 123°55'0 0.0
2014-Oct-23 20:33N 46°10' W 123°55'0 0.0
2014-Oct-23 19:33N 46°10' W 123°55'0 0.0
2014-Oct-23 18:33N 46°10' W 123°55'0 0.0
2014-Oct-23 17:33N 46°10' W 123°55'0 0.0
2014-Oct-23 16:33N 46°10' W 123°55'0 0.0
2014-Oct-23 15:33N 46°10' W 123°55'0 0.0
2014-Oct-23 14:33N 46°10' W 123°55'0 0.0
2014-Oct-23 13:33N 46°10' W 123°55'0 0.0
2014-Oct-23 12:33N 46°10' W 123°55'0 0.0
2014-Oct-23 11:33N 46°10' W 123°55'0 0.0
2014-Oct-23 10:33N 46°10' W 123°55'0 0.0
2014-Oct-23 09:33N 46°10' W 123°55'0 0.0
2014-Oct-23 08:33N 46°10' W 123°55'0 0.0
2014-Oct-23 07:33N 46°10' W 123°55'0 0.0
2014-Oct-23 06:34N 46°10' W 123°55'0 0.0
2014-Oct-23 06:14N 46°10' W 123°55'0 0.0
2014-Oct-23 05:33N 46°10' W 123°55'0 0.0
2014-Oct-23 04:33N 46°10' W 123°55'0 0.0
2014-Oct-23 03:33N 46°10' W 123°55'0 0.0
2014-Oct-23 02:33N 46°10' W 123°55'0 0.0
2014-Oct-23 01:33N 46°10' W 123°55'0 0.0
2014-Oct-23 00:33N 46°10' W 123°55'0 0.0
2014-Oct-22 23:33N 46°10' W 123°55'0 0.0
2014-Oct-22 22:33N 46°10' W 123°55'0 0.0
2014-Oct-22 21:33N 46°10' W 123°55'0 0.0
2014-Oct-22 20:34N 46°10' W 123°55'0 0.0
2014-Oct-22 19:33N 46°10' W 123°55'0 0.0
2014-Oct-22 18:33N 46°10' W 123°55'0 0.0
2014-Oct-22 17:33N 46°10' W 123°55'0 0.0
2014-Oct-22 16:33N 46°10' W 123°55'0 0.0
2014-Oct-22 15:33N 46°10' W 123°55'0 0.0
2014-Oct-22 14:33N 46°10' W 123°55'0 0.0
2014-Oct-22 13:33N 46°10' W 123°55'0 0.0
2014-Oct-22 12:34N 46°10' W 123°55'0 0.0
2014-Oct-22 11:33N 46°10' W 123°55'0 0.0
2014-Oct-22 10:33N 46°10' W 123°55'0 0.0
2014-Oct-22 09:33N 46°10' W 123°55'0 0.0
2014-Oct-22 08:33N 46°10' W 123°55'0 0.0
2014-Oct-22 07:33N 46°10' W 123°55'0 0.0
2014-Oct-22 06:33N 46°10' W 123°55'0 0.0
2014-Oct-22 05:33N 46°10' W 123°55'0 0.0
2014-Oct-22 04:33N 46°10' W 123°55'0 0.0
2014-Oct-22 03:51N 46°10' W 123°55'0 0.0
2014-Oct-22 03:33N 46°10' W 123°55'0 0.0
2014-Oct-22 03:31N 46°10' W 123°55'0 0.0
2014-Oct-22 02:33N 46°10' W 123°55'0 0.0
2014-Oct-22 01:33N 46°10' W 123°55'0 0.0
2014-Oct-22 00:34N 46°10' W 123°55'0 0.0
2014-Oct-21 23:33N 46°10' W 123°55'0 0.0
2014-Oct-21 22:33N 46°10' W 123°55'0 0.0
2014-Oct-21 21:36N 46°10' W 123°55'0 0.0
2014-Oct-21 21:33N 46°10' W 123°55'0 0.0
2014-Oct-21 21:16N 46°10' W 123°55'0 0.0
2014-Oct-21 20:33N 46°10' W 123°55'0 0.0
2014-Oct-21 19:33N 46°10' W 123°55'0 0.0
2014-Oct-21 18:33N 46°10' W 123°55'0 0.0
2014-Oct-21 17:33N 46°10' W 123°55'0 0.0
2014-Oct-21 16:33N 46°10' W 123°55'0 0.0
2014-Oct-21 15:33N 46°10' W 123°55'0 0.0
2014-Oct-21 14:33N 46°10' W 123°55'0 0.0
2014-Oct-21 13:33N 46°10' W 123°55'0 0.0
2014-Oct-21 12:55N 46°10' W 123°55'0 0.0
2014-Oct-21 12:33N 46°10' W 123°55'0 0.0
2014-Oct-21 11:33N 46°10' W 123°55'0 0.0
2014-Oct-21 10:34N 46°10' W 123°55'0 0.0
2014-Oct-21 10:25N 46°10' W 123°55'0 0.0
2014-Oct-21 09:33N 46°10' W 123°55'0 0.0
2014-Oct-21 09:20N 46°10' W 123°55'0 0.0
2014-Oct-21 08:33N 46°10' W 123°55'0 0.0
2014-Oct-21 08:10N 46°10' W 123°55'0 0.0
2014-Oct-21 07:33N 46°10' W 123°55'  

Dump ship's entire track history